Time;durP1;ratioP1;P1;durP2;ratioP2;P2;SDS_P1;SDS_P2;PMS_P1;PMS_P2;Temp;Humidity;BMP_temperature;BMP_pressure;BME280_temperature;BME280_humidity;BME280_pressure;Samples;Min_cycle;Max_cycle;Signal;HPM_P1;HPM_P2
2024/04/10 00:02:03;;;;;;;9.07;4.20;;;15.90;99.90;;;;;;5392407;26;20008;-74
2024/04/10 00:04:37;;;;;;;9.63;3.95;;;15.90;99.90;;;;;;5405382;26;19999;-74
2024/04/10 00:07:05;;;;;;;10.70;5.30;;;15.90;99.90;;;;;;5407662;26;20000;-76
2024/04/10 00:09:35;;;;;;;10.23;4.50;;;15.70;99.90;;;;;;5408245;26;20363;-74
2024/04/10 00:12:03;;;;;;;7.00;4.22;;;15.70;99.90;;;;;;5411861;26;20532;-73
2024/04/10 00:14:34;;;;;;;8.82;3.92;;;15.70;99.90;;;;;;5400930;26;20015;-73
2024/04/10 00:17:03;;;;;;;7.20;3.47;;;15.70;99.90;;;;;;5406720;26;20012;-73
2024/04/10 00:19:37;;;;;;;7.18;3.67;;;15.80;99.90;;;;;;5402526;26;20420;-74
2024/04/10 00:22:05;;;;;;;4.72;3.75;;;15.80;99.90;;;;;;5409953;26;20079;-74
2024/04/10 00:24:35;;;;;;;7.60;3.33;;;15.80;99.90;;;;;;5390169;26;20454;-74
2024/04/10 00:27:03;;;;;;;10.23;3.55;;;15.80;99.90;;;;;;5406773;26;20003;-74
2024/04/10 00:29:35;;;;;;;7.95;3.20;;;15.90;99.90;;;;;;5408670;26;20084;-73
2024/04/10 00:32:04;;;;;;;7.18;3.53;;;15.80;99.90;;;;;;5400995;26;20485;-74
2024/04/10 00:34:38;;;;;;;26.13;6.25;;;15.80;99.90;;;;;;5407568;26;20383;-74
2024/04/10 00:37:05;;;;;;;10.27;4.32;;;15.80;99.90;;;;;;5392485;26;20000;-76
2024/04/10 00:39:35;;;;;;;13.20;3.40;;;15.80;99.90;;;;;;5434959;26;20011;-74
2024/04/10 00:42:03;;;;;;;7.63;3.58;;;15.80;99.90;;;;;;5424955;26;20000;-73
2024/04/10 00:44:33;;;;;;;8.60;3.53;;;15.80;99.90;;;;;;5399014;26;19999;-74
2024/04/10 00:47:02;;;;;;;8.85;3.30;;;15.70;99.90;;;;;;5405182;26;20000;-74
2024/04/10 00:49:32;;;;;;;10.57;4.22;;;15.70;99.90;;;;;;5400787;26;20459;-74
2024/04/10 00:52:03;;;;;;;7.65;3.67;;;15.70;99.90;;;;;;5407402;26;19999;-74
2024/04/10 00:54:37;;;;;;;7.20;3.85;;;15.70;99.90;;;;;;5425912;26;20007;-74
2024/04/10 00:57:05;;;;;;;7.38;3.65;;;15.70;99.90;;;;;;5414168;26;20369;-73
2024/04/10 00:59:36;;;;;;;9.68;4.28;;;15.60;99.90;;;;;;5414759;26;20031;-73
2024/04/10 01:02:05;;;;;;;6.95;3.55;;;15.60;99.90;;;;;;5390084;26;20091;-73
2024/04/10 01:04:37;;;;;;;10.55;4.53;;;15.70;99.90;;;;;;5411677;26;20003;-81
2024/04/10 01:07:10;;;;;;;8.30;3.90;;;15.60;99.90;;;;;;5446584;26;20015;-80
2024/04/10 01:09:41;;;;;;;9.45;3.72;;;15.60;99.90;;;;;;5428650;26;20000;-81
2024/04/10 01:12:08;;;;;;;6.85;4.20;;;15.60;99.90;;;;;;5452633;26;20021;-82
2024/04/10 01:14:39;;;;;;;4.90;3.35;;;15.60;99.90;;;;;;5418524;26;20003;-82
2024/04/10 01:17:07;;;;;;;9.30;4.43;;;15.50;99.90;;;;;;5424813;26;20076;-82
2024/04/10 01:19:38;;;;;;;7.07;3.60;;;15.50;99.90;;;;;;5427834;26;20014;-81
2024/04/10 01:22:06;;;;;;;9.30;3.70;;;15.50;99.90;;;;;;5416356;26;20082;-82
2024/04/10 01:24:38;;;;;;;8.10;3.33;;;15.50;99.90;;;;;;5433341;26;20423;-80
2024/04/10 01:27:06;;;;;;;7.85;4.30;;;15.50;99.90;;;;;;5403497;26;20007;-82
2024/04/10 01:29:36;;;;;;;7.93;3.67;;;15.20;99.90;;;;;;5419756;26;20007;-82
2024/04/10 01:32:05;;;;;;;7.45;3.80;;;15.30;99.90;;;;;;5446713;26;20004;-80
2024/04/10 01:34:36;;;;;;;5.18;3.40;;;15.40;99.90;;;;;;5421755;26;20007;-81
2024/04/10 01:37:04;;;;;;;6.60;4.25;;;15.40;99.90;;;;;;5422499;26;20010;-83
2024/04/10 01:39:34;;;;;;;5.10;3.63;;;16.20;99.90;;;;;;5411171;26;20010;-82
2024/04/10 01:42:05;;;;;;;7.00;3.50;;;15.80;99.90;;;;;;5443152;26;20011;-79
2024/04/10 01:44:36;;;;;;;8.32;3.53;;;15.60;99.90;;;;;;5419347;26;20037;-81
2024/04/10 01:47:05;;;;;;;7.20;3.35;;;14.40;99.90;;;;;;5421946;26;20004;-82
2024/04/10 01:49:38;;;;;;;7.15;3.20;;;16.80;99.90;;;;;;5417722;26;20007;-82
2024/04/10 01:52:06;;;;;;;9.68;3.50;;;15.70;99.90;;;;;;5422461;26;20007;-82
2024/04/10 01:56:48;;;;;;;6.55;3.40;;;15.30;99.90;;;;;;5403298;26;20018;-83
2024/04/10 01:59:18;;;;;;;5.43;3.45;;;15.20;99.90;;;;;;5425491;26;20011;-80
2024/04/10 02:01:49;;;;;;;5.55;3.25;;;15.20;99.90;;;;;;5420283;26;20032;-81
2024/04/10 02:04:17;;;;;;;3.78;2.70;;;15.20;99.90;;;;;;5415859;26;20015;-81
2024/04/10 02:06:50;;;;;;;6.05;3.10;;;15.20;99.90;;;;;;5430696;26;20004;-77
2024/04/10 02:09:17;;;;;;;10.40;3.50;;;15.20;99.90;;;;;;5420267;26;19996;-82
2024/04/10 02:11:48;;;;;;;7.15;3.35;;;15.20;99.90;;;;;;5423308;26;20019;-79
2024/04/10 02:14:18;;;;;;;7.47;3.35;;;15.20;99.90;;;;;;5399784;26;20019;-79
2024/04/10 02:16:49;;;;;;;10.07;4.45;;;15.20;99.90;;;;;;5401238;26;20012;-79
2024/04/10 02:19:16;;;;;;;7.15;4.00;;;15.20;99.90;;;;;;5397587;26;20005;-78
2024/04/10 02:21:46;;;;;;;7.53;3.97;;;15.10;99.90;;;;;;5397472;26;20001;-79
2024/04/10 02:24:14;;;;;;;8.30;3.88;;;15.10;99.90;;;;;;5427965;26;20008;-79
2024/04/10 02:26:44;;;;;;;8.60;4.28;;;15.10;99.90;;;;;;5401036;26;20011;-79
2024/04/10 02:29:12;;;;;;;9.82;4.95;;;15.10;99.90;;;;;;5399764;26;20016;-79
2024/04/10 02:31:45;;;;;;;9.15;4.80;;;15.10;99.90;;;;;;5406564;26;20409;-79
2024/04/10 02:34:13;;;;;;;9.52;4.88;;;15.10;99.90;;;;;;5400874;26;20077;-79
2024/04/10 02:36:44;;;;;;;11.07;5.03;;;15.10;99.90;;;;;;5393673;26;20351;-79
2024/04/10 02:39:11;;;;;;;10.52;4.57;;;15.10;99.90;;;;;;5397993;26;20000;-79
2024/04/10 02:41:41;;;;;;;10.18;4.15;;;15.10;99.90;;;;;;5403651;26;20447;-79
2024/04/10 02:44:10;;;;;;;10.38;3.45;;;15.10;99.90;;;;;;5402607;26;20073;-79
2024/04/10 02:46:40;;;;;;;7.85;3.20;;;15.10;99.90;;;;;;5405111;26;20000;-83
2024/04/10 02:49:10;;;;;;;12.60;3.10;;;15.10;99.90;;;;;;5404446;26;20008;-82
2024/04/10 02:51:40;;;;;;;6.10;2.33;;;15.10;99.90;;;;;;5436182;26;20076;-81
2024/04/10 02:54:08;;;;;;;8.13;2.60;;;15.10;99.90;;;;;;5402476;26;20051;-79
2024/04/10 02:56:39;;;;;;;6.53;2.00;;;15.20;99.90;;;;;;5425147;26;20466;-82
2024/04/10 02:59:07;;;;;;;7.93;1.65;;;15.20;99.90;;;;;;5413399;26;20004;-81
2024/04/10 03:01:39;;;;;;;7.57;2.65;;;15.30;99.90;;;;;;5406127;26;20015;-82
2024/04/10 03:04:10;;;;;;;5.57;1.65;;;15.30;99.90;;;;;;5423106;26;20018;-80
2024/04/10 03:06:40;;;;;;;9.18;1.40;;;15.30;99.90;;;;;;5405127;26;20003;-80
2024/04/10 03:09:08;;;;;;;20.08;3.55;;;15.40;99.90;;;;;;5418911;26;20020;-81
2024/04/10 03:11:38;;;;;;;5.53;1.42;;;15.40;99.90;;;;;;5408527;26;20496;-79
2024/04/10 03:14:08;;;;;;;5.00;1.60;;;15.40;99.90;;;;;;5397089;26;20008;-79
2024/04/10 03:16:39;;;;;;;8.68;1.67;;;15.40;99.90;;;;;;5374726;26;20018;-81
2024/04/10 03:19:08;;;;;;;5.95;1.77;;;15.40;99.90;;;;;;5406590;26;20054;-80
2024/04/10 03:21:41;;;;;;;7.30;1.55;;;15.30;99.90;;;;;;5407727;26;19996;-80
2024/04/10 03:24:10;;;;;;;6.45;1.40;;;15.30;99.90;;;;;;5404089;26;20067;-76
2024/04/10 03:26:40;;;;;;;6.25;1.85;;;15.30;99.90;;;;;;5411056;26;20016;-74
2024/04/10 03:29:10;;;;;;;13.20;1.77;;;15.40;99.90;;;;;;5394234;26;20000;-76
2024/04/10 03:31:38;;;;;;;10.07;1.60;;;15.30;99.90;;;;;;5418938;26;19999;-76
2024/04/10 03:34:09;;;;;;;6.05;1.30;;;15.30;99.90;;;;;;5406856;26;20015;-75
2024/04/10 03:36:39;;;;;;;4.55;0.90;;;15.30;99.90;;;;;;5425147;26;20028;-74
2024/04/10 03:39:11;;;;;;;4.72;0.93;;;15.20;99.90;;;;;;5413781;26;20347;-74
2024/04/10 03:41:39;;;;;;;3.92;1.30;;;15.30;99.90;;;;;;5414167;26;20028;-75
2024/04/10 03:44:09;;;;;;;4.88;1.42;;;15.30;99.90;;;;;;5431017;26;20081;-74
2024/04/10 03:46:42;;;;;;;5.50;1.15;;;15.30;99.90;;;;;;5407519;26;20012;-74
2024/04/10 03:49:15;;;;;;;7.93;2.75;;;15.20;99.90;;;;;;5395291;26;20083;-76
2024/04/10 03:51:51;;;;;;;3.38;0.65;;;15.20;99.90;;;;;;5404066;26;20000;-76
2024/04/10 03:54:19;;;;;;;3.78;0.65;;;15.10;99.90;;;;;;5400440;26;20019;-75
2024/04/10 03:56:50;;;;;;;4.35;0.90;;;15.20;99.90;;;;;;5396837;26;20008;-76
2024/04/10 03:59:18;;;;;;;4.72;0.68;;;15.10;99.90;;;;;;5398527;26;20019;-76
2024/04/10 04:01:49;;;;;;;2.08;0.30;;;15.10;99.90;;;;;;5399587;26;20474;-77
2024/04/10 04:04:19;;;;;;;2.33;0.75;;;15.10;99.90;;;;;;5401102;26;20004;-77
2024/04/10 04:07:06;;;;;;;4.70;0.40;;;15.10;99.90;;;;;;5418188;26;20023;-75
2024/04/10 04:09:51;;;;;;;1.55;0.40;;;15.00;99.90;;;;;;5429159;26;20008;-79
2024/04/10 04:12:25;;;;;;;3.03;0.70;;;15.00;99.90;;;;;;5402074;26;20010;-77
2024/04/10 04:14:56;;;;;;;3.13;0.50;;;15.00;99.90;;;;;;5393661;26;20347;-79
2024/04/10 04:17:26;;;;;;;2.05;0.77;;;15.00;99.90;;;;;;5424048;26;20046;-77
2024/04/10 04:20:17;;;;;;;4.68;0.38;;;15.00;99.90;;;;;;5345923;26;20029;-77
2024/04/10 04:22:53;;;;;;;2.22;0.40;;;15.00;99.90;;;;;;5338288;26;20016;-77
2024/04/10 04:25:21;;;;;;;4.63;0.45;;;15.00;99.90;;;;;;5312077;26;20056;-76
2024/04/10 04:27:53;;;;;;;4.28;0.55;;;15.00;99.90;;;;;;5309897;26;20001;-78
2024/04/10 04:30:32;;;;;;;7.13;0.88;;;15.00;99.90;;;;;;5345164;26;20016;-79
2024/04/10 04:33:07;;;;;;;2.10;0.60;;;15.00;99.90;;;;;;5316774;26;20002;-82
2024/04/10 04:35:37;;;;;;;3.78;0.95;;;15.00;99.90;;;;;;5356595;26;20016;-79
2024/04/10 04:38:11;;;;;;;6.20;0.63;;;15.10;99.90;;;;;;5353549;26;20015;-81
2024/04/10 04:40:39;;;;;;;6.50;0.68;;;15.10;99.90;;;;;;5415672;26;20019;-85
2024/04/10 04:43:10;;;;;;;7.45;1.65;;;15.10;99.90;;;;;;5421640;26;19988;-84
2024/04/10 04:45:39;;;;;;;1.98;0.60;;;15.10;99.90;;;;;;5422740;26;20004;-85
2024/04/10 04:48:12;;;;;;;5.72;0.82;;;15.10;99.90;;;;;;5427792;26;19999;-83
2024/04/10 04:50:41;;;;;;;4.10;0.55;;;15.10;99.90;;;;;;5410336;26;20054;-81
2024/04/10 04:53:16;;;;;;;3.92;0.50;;;15.00;99.90;;;;;;5407602;26;20015;-83
2024/04/10 04:55:44;;;;;;;0.98;0.57;;;15.10;99.90;;;;;;5417831;26;19996;-83
2024/04/10 04:58:17;;;;;;;4.82;0.47;;;15.10;99.90;;;;;;5423626;26;20004;-85
2024/04/10 05:00:45;;;;;;;4.85;0.63;;;15.20;99.90;;;;;;5427297;26;20440;-82
2024/04/10 05:06:01;;;;;;;7.72;0.57;;;15.20;99.90;;;;;;5420050;26;20004;-85
2024/04/10 05:08:34;;;;;;;3.95;0.50;;;15.10;99.90;;;;;;5425129;26;20030;-85
2024/04/10 05:11:09;;;;;;;2.55;0.65;;;15.20;99.90;;;;;;5419256;26;20003;-81
2024/04/10 05:13:39;;;;;;;3.30;0.60;;;15.20;99.90;;;;;;5410386;26;20015;-83
2024/04/10 05:16:10;;;;;;;3.83;0.47;;;15.20;99.90;;;;;;5412684;26;20007;-85
2024/04/10 05:18:38;;;;;;;5.85;0.50;;;15.20;99.90;;;;;;5417589;26;20000;-83
2024/04/10 05:21:09;;;;;;;2.88;0.40;;;15.20;99.90;;;;;;5408921;26;19999;-83
2024/04/10 05:23:39;;;;;;;7.63;0.40;;;15.20;99.90;;;;;;5418937;26;20018;-84
2024/04/10 05:26:10;;;;;;;4.07;0.50;;;15.20;99.90;;;;;;5427436;26;20004;-84
2024/04/10 05:28:38;;;;;;;5.70;0.50;;;15.20;99.90;;;;;;5418251;26;20013;-81
2024/04/10 05:31:10;;;;;;;3.53;0.47;;;16.30;99.90;;;;;;5411832;26;20513;-83
2024/04/10 05:33:41;;;;;;;2.78;0.60;;;15.50;99.90;;;;;;5417524;26;20000;-84
2024/04/10 05:36:12;;;;;;;3.63;0.50;;;15.30;99.90;;;;;;5420995;26;20003;-83
2024/04/10 05:38:45;;;;;;;2.75;0.50;;;14.30;99.90;;;;;;5419323;26;20340;-82
2024/04/10 05:41:25;;;;;;;4.25;0.28;;;18.10;99.90;;;;;;5410373;26;20687;-83
2024/04/10 05:43:53;;;;;;;6.47;0.70;;;16.00;99.90;;;;;;5417614;26;20018;-82
2024/04/10 05:46:26;;;;;;;2.05;0.60;;;16.20;99.90;;;;;;5417781;26;20007;-82
2024/04/10 05:48:54;;;;;;;6.07;0.50;;;15.40;99.90;;;;;;5404930;26;20017;-84
2024/04/10 05:54:42;;;;;;;4.18;0.65;;;16.10;99.90;;;;;;5428422;26;20007;-85
2024/04/10 05:57:10;;;;;;;3.38;0.47;;;15.50;99.90;;;;;;5445996;26;20004;-80
2024/04/10 05:59:53;;;;;;;2.30;0.40;;;16.30;99.90;;;;;;5418584;26;19995;-86
2024/04/10 06:02:22;;;;;;;4.40;0.93;;;16.10;99.90;;;;;;5370053;26;20015;-85
2024/04/10 06:04:56;;;;;;;4.32;0.50;;;16.60;99.90;;;;;;5433951;26;20479;-80
2024/04/10 06:07:25;;;;;;;3.17;0.30;;;16.20;99.90;;;;;;5419028;26;20021;-85
2024/04/10 06:09:59;;;;;;;3.90;0.35;;;16.00;99.10;;;;;;5421034;26;20014;-82
2024/04/10 06:12:29;;;;;;;3.15;0.40;;;16.00;98.80;;;;;;5423213;26;20001;-81
2024/04/10 06:15:00;;;;;;;2.33;0.28;;;16.30;98.10;;;;;;5402304;26;20076;-80
2024/04/10 06:17:31;;;;;;;4.38;0.32;;;15.20;98.40;;;;;;5413224;26;20000;-82
2024/04/10 06:20:05;;;;;;;6.57;0.30;;;16.20;97.80;;;;;;5425866;26;20007;-81
2024/04/10 06:22:33;;;;;;;2.92;0.57;;;17.10;98.40;;;;;;5418489;26;20020;-81
2024/04/10 06:25:09;;;;;;;5.63;0.40;;;17.30;98.30;;;;;;5418246;26;20011;-86
2024/04/10 06:27:37;;;;;;;5.80;0.50;;;17.00;96.50;;;;;;5420997;26;20008;-82
2024/04/10 06:30:29;;;;;;;3.08;0.40;;;16.60;97.40;;;;;;5445989;26;20007;-84
2024/04/10 06:32:57;;;;;;;5.13;0.30;;;16.70;96.20;;;;;;5327350;26;20076;-80
2024/04/10 06:35:29;;;;;;;3.85;0.30;;;17.00;96.80;;;;;;5355396;26;20231;-83
2024/04/10 06:37:57;;;;;;;2.40;0.30;;;17.00;96.60;;;;;;5350326;26;20005;-84
2024/04/10 06:40:31;;;;;;;6.68;0.30;;;17.20;96.40;;;;;;5349682;26;20020;-85
2024/04/10 06:42:59;;;;;;;2.80;0.52;;;17.40;95.30;;;;;;5322864;26;20008;-81
2024/04/10 06:45:29;;;;;;;4.68;0.40;;;17.30;95.60;;;;;;5365865;26;20017;-80
2024/04/10 06:47:57;;;;;;;3.22;0.45;;;17.00;96.30;;;;;;5329321;26;20020;-80
2024/04/10 06:50:28;;;;;;;4.32;0.30;;;17.30;95.60;;;;;;5356089;26;20020;-81
2024/04/10 06:52:56;;;;;;;5.28;0.60;;;17.40;95.50;;;;;;5354867;26;20024;-78
2024/04/10 06:55:40;;;;;;;3.95;0.20;;;17.10;94.20;;;;;;5342943;26;20001;-76
2024/04/10 06:58:07;;;;;;;5.28;0.30;;;16.90;94.40;;;;;;5385146;26;20003;-76
2024/04/10 07:00:40;;;;;;;4.03;0.38;;;16.80;94.70;;;;;;5410328;26;20004;-76
2024/04/10 07:03:08;;;;;;;4.75;0.40;;;16.70;94.30;;;;;;5411222;26;20483;-75
2024/04/10 07:05:48;;;;;;;2.15;0.63;;;16.80;94.80;;;;;;5419382;26;20010;-77
2024/04/10 07:08:17;;;;;;;2.45;0.40;;;16.90;94.40;;;;;;5387983;26;20355;-74
2024/04/10 07:10:57;;;;;;;2.20;0.30;;;17.00;94.50;;;;;;5406948;26;20011;-75
2024/04/10 07:13:26;;;;;;;3.35;0.28;;;17.30;94.00;;;;;;5404815;26;20000;-75
2024/04/10 07:16:04;;;;;;;4.20;0.40;;;17.10;94.20;;;;;;5401066;26;20005;-76
2024/04/10 07:18:34;;;;;;;3.03;0.32;;;17.00;94.00;;;;;;5393703;26;20354;-75
2024/04/10 07:21:08;;;;;;;4.38;0.40;;;17.00;94.30;;;;;;5411004;26;20015;-76
2024/04/10 07:23:45;;;;;;;3.45;0.50;;;16.90;94.00;;;;;;5399252;26;20073;-77
2024/04/10 07:26:20;;;;;;;3.70;0.90;;;17.10;94.40;;;;;;5407023;26;20053;-76
2024/04/10 07:28:55;;;;;;;2.30;0.20;;;17.20;94.10;;;;;;5401431;26;20520;-77
2024/04/10 07:31:31;;;;;;;2.58;0.30;;;17.30;93.90;;;;;;5411311;26;20058;-75
2024/04/10 07:34:11;;;;;;;3.88;0.30;;;17.10;93.70;;;;;;5399476;26;20012;-77
2024/04/10 07:36:41;;;;;;;3.10;0.40;;;17.10;94.10;;;;;;5408504;26;20081;-77
2024/04/10 07:39:19;;;;;;;2.20;0.20;;;17.00;93.90;;;;;;5407235;26;20077;-77
2024/04/10 07:41:54;;;;;;;6.65;0.32;;;17.30;93.70;;;;;;5413545;26;20350;-76
2024/04/10 07:44:32;;;;;;;6.30;0.20;;;17.50;93.50;;;;;;5430286;26;20443;-77
2024/04/10 07:47:05;;;;;;;4.45;0.40;;;17.60;93.20;;;;;;5394647;26;20035;-76
2024/04/10 07:49:43;;;;;;;5.53;0.30;;;17.50;93.30;;;;;;5413229;26;20466;-76
2024/04/10 07:52:39;;;;;;;9.07;0.93;;;17.60;93.30;;;;;;5413046;26;20017;-75
2024/04/10 07:55:11;;;;;;;3.53;0.30;;;17.50;93.20;;;;;;5437786;26;20244;-77
2024/04/10 07:57:44;;;;;;;;;;;17.40;93.40;;;;;;5404872;26;20003;-76
2024/04/10 08:00:19;;;;;;;5.22;0.38;;;17.60;92.90;;;;;;5436727;26;19930;-76
2024/04/10 08:02:47;;;;;;;6.20;0.30;;;17.40;93.00;;;;;;5403481;26;20012;-78
2024/04/10 08:05:21;;;;;;;1.50;0.30;;;17.60;93.30;;;;;;5411693;26;20014;-76
2024/04/10 08:07:53;;;;;;;3.03;0.47;;;17.70;92.70;;;;;;5442398;26;20132;-77
2024/04/10 08:13:17;;;;;;;2.90;0.52;;;17.70;92.50;;;;;;5401917;26;20078;-78
2024/04/10 08:15:53;;;;;;;4.65;0.30;;;17.70;92.60;;;;;;5398235;26;19999;-76
2024/04/10 08:18:24;;;;;;;3.33;0.30;;;17.90;92.70;;;;;;5400989;26;19999;-80
2024/04/10 08:21:00;;;;;;;5.55;0.30;;;18.10;92.30;;;;;;5459271;26;20467;-78
2024/04/10 08:23:31;;;;;;;6.10;0.98;;;18.20;92.00;;;;;;5395059;26;20344;-79
2024/04/10 08:26:00;;;;;;;9.43;1.45;;;18.30;91.80;;;;;;5408594;26;20011;-78
2024/04/10 08:28:33;;;;;;;7.97;0.73;;;18.30;91.70;;;;;;5405803;26;20025;-80
2024/04/10 08:31:01;;;;;;;4.97;0.30;;;18.30;91.50;;;;;;5404425;26;20694;-84
2024/04/10 08:33:32;;;;;;;6.65;0.43;;;19.20;92.30;;;;;;5399762;26;20471;-80
2024/04/10 08:36:10;;;;;;;3.67;0.70;;;18.30;92.70;;;;;;5415354;26;20015;-83
2024/04/10 08:38:43;;;;;;;4.93;0.45;;;18.80;92.00;;;;;;5424355;26;20007;-81
2024/04/10 08:41:13;;;;;;;1.52;0.30;;;18.20;91.80;;;;;;5412820;26;20011;-82
2024/04/10 08:43:48;;;;;;;5.88;0.22;;;18.30;92.40;;;;;;5421417;26;19999;-84
2024/04/10 08:46:17;;;;;;;13.45;0.70;;;18.80;92.40;;;;;;5440608;26;20015;-82
2024/04/10 08:48:50;;;;;;;4.60;0.43;;;20.30;92.10;;;;;;5423292;26;20436;-79
2024/04/10 08:51:21;;;;;;;3.03;0.30;;;18.70;91.70;;;;;;5402232;26;20019;-79
2024/04/10 08:53:54;;;;;;;1.80;0.50;;;18.60;91.00;;;;;;5412794;26;20000;-80
2024/04/10 08:56:22;;;;;;;4.07;0.38;;;17.50;91.40;;;;;;5420104;26;20000;-83
2024/04/10 08:58:56;;;;;;;4.88;0.50;;;18.90;92.10;;;;;;5421593;26;20015;-81
2024/04/10 09:01:26;;;;;;;4.53;0.30;;;18.70;90.70;;;;;;5405638;26;20013;-80
2024/04/10 09:03:57;;;;;;;2.65;0.40;;;18.70;91.40;;;;;;5417637;26;20012;-83
2024/04/10 09:06:25;;;;;;;3.10;0.50;;;19.30;92.30;;;;;;5417961;26;20419;-80
2024/04/10 09:08:59;;;;;;;1.85;0.35;;;18.90;91.20;;;;;;5411387;26;20057;-82
2024/04/10 09:11:27;;;;;;;8.27;0.80;;;19.00;90.40;;;;;;5399608;26;20458;-84
2024/04/10 09:14:10;;;;;;;2.58;0.30;;;18.90;91.60;;;;;;5411905;26;19995;-79
2024/04/10 09:16:44;;;;;;;2.47;0.50;;;18.90;90.90;;;;;;5421638;26;20040;-84
2024/04/10 09:19:18;;;;;;;8.35;0.38;;;19.70;90.50;;;;;;5355095;26;20003;-82
2024/04/10 09:21:58;;;;;;;4.43;0.50;;;18.90;91.50;;;;;;5403250;26;20022;-83
2024/04/10 09:24:30;;;;;;;4.18;0.57;;;18.70;91.00;;;;;;5414486;26;20008;-79
2024/04/10 09:26:59;;;;;;;2.78;0.40;;;18.80;90.50;;;;;;5398917;26;20000;-83
2024/04/10 09:29:32;;;;;;;3.10;0.35;;;19.00;90.50;;;;;;5406940;26;20032;-81
2024/04/10 09:32:04;;;;;;;6.88;0.68;;;19.30;91.40;;;;;;5399066;26;20354;-81
2024/04/10 09:34:37;;;;;;;3.47;0.40;;;18.00;90.10;;;;;;5449579;26;20553;-78
2024/04/10 09:37:06;;;;;;;5.05;0.40;;;19.30;89.40;;;;;;5443872;26;20007;-82
2024/04/10 09:39:38;;;;;;;5.68;1.50;;;19.20;89.20;;;;;;5436294;26;20078;-81
2024/04/10 09:42:16;;;;;;;2.63;0.47;;;19.50;89.30;;;;;;5430880;26;20366;-82
2024/04/10 09:45:21;;;;;;;2.28;0.30;;;19.60;89.00;;;;;;5431976;26;20007;-85
2024/04/10 09:47:55;;;;;;;4.38;0.52;;;19.50;90.00;;;;;;5421079;26;20056;-81
2024/04/10 09:50:31;;;;;;;6.95;1.50;;;18.40;90.20;;;;;;5425102;26;20044;-84
2024/04/10 09:53:00;;;;;;;4.90;0.88;;;21.60;91.10;;;;;;5462964;26;20031;-83
2024/04/10 09:55:33;;;;;;;3.13;0.30;;;19.80;90.40;;;;;;5419494;26;20002;-78
2024/04/10 09:58:05;;;;;;;3.90;0.40;;;20.10;90.90;;;;;;5466416;26;20056;-84
2024/04/10 10:00:40;;;;;;;2.03;1.05;;;19.90;90.10;;;;;;5423460;26;20006;-82
2024/04/10 10:03:54;;;;;;;1.52;0.52;;;19.60;90.30;;;;;;5459136;26;19999;-85
2024/04/10 10:06:40;;;;;;;13.20;0.60;;;19.30;88.70;;;;;;5315030;27;20006;-83
2024/04/10 10:09:23;;;;;;;7.40;0.90;;;20.10;91.20;;;;;;5256572;27;20064;-85
2024/04/10 10:11:59;;;;;;;3.50;0.43;;;19.70;91.30;;;;;;5281086;27;20016;-83
2024/04/10 10:14:31;;;;;;;3.13;0.50;;;19.70;90.40;;;;;;5310297;27;20011;-83
2024/04/10 10:17:12;;;;;;;6.28;0.57;;;19.80;90.10;;;;;;5318007;27;20001;-83
2024/04/10 10:19:48;;;;;;;6.05;1.30;;;20.50;90.70;;;;;;5312837;27;20005;-83
2024/04/10 10:22:20;;;;;;;3.63;0.60;;;21.60;90.10;;;;;;5311426;27;20009;-84
2024/04/10 10:25:13;;;;;;;3.53;0.40;;;19.50;91.00;;;;;;5317041;27;19997;-83
2024/04/10 10:27:46;;;;;;;3.33;0.40;;;19.50;90.20;;;;;;5286090;27;20013;-84
2024/04/10 10:30:18;;;;;;;3.20;0.70;;;20.30;91.40;;;;;;5326030;26;20040;-84
2024/04/10 10:32:54;;;;;;;2.45;0.63;;;20.30;90.80;;;;;;5352585;26;20084;-84
2024/04/10 10:35:22;;;;;;;3.70;0.52;;;20.00;88.80;;;;;;5322131;26;20003;-84
2024/04/10 10:37:53;;;;;;;5.47;0.50;;;19.80;90.30;;;;;;5323914;26;20020;-83
2024/04/10 10:40:23;;;;;;;2.10;0.50;;;19.30;91.00;;;;;;5348465;26;20028;-82
2024/04/10 10:43:02;;;;;;;5.32;0.73;;;19.60;90.50;;;;;;5354937;26;20005;-85
2024/04/10 10:45:37;;;;;;;3.88;0.70;;;19.60;90.10;;;;;;5412508;26;20000;-85
2024/04/10 10:48:29;;;;;;;2.85;0.30;;;19.70;91.10;;;;;;5394116;26;20043;-80
2024/04/10 10:50:58;;;;;;;3.75;0.50;;;19.50;91.10;;;;;;5414891;26;20075;-79
2024/04/10 10:53:38;;;;;;;5.45;0.63;;;19.40;90.70;;;;;;5405682;26;19996;-84
2024/04/10 10:56:33;;;;;;;8.60;0.70;;;19.50;90.80;;;;;;5424913;26;20011;-85
2024/04/10 10:59:30;;;;;;;6.25;0.57;;;19.50;91.20;;;;;;5285415;27;20003;-84
2024/04/10 11:02:00;;;;;;;5.55;0.63;;;19.70;91.30;;;;;;5286537;27;20016;-83
2024/04/10 11:04:34;;;;;;;4.55;0.77;;;22.30;92.10;;;;;;5281395;27;20015;-83
2024/04/10 11:07:19;;;;;;;1.90;0.75;;;19.80;90.70;;;;;;5260431;27;20022;-82
2024/04/10 11:10:11;;;;;;;4.20;0.70;;;18.90;89.80;;;;;;5237997;27;20342;-84
2024/04/10 11:13:19;;;;;;;7.95;1.50;;;19.80;90.90;;;;;;5286719;26;20002;-84
2024/04/10 11:16:15;;;;;;;9.05;1.23;;;20.30;90.50;;;;;;5192184;27;20068;-83
2024/04/10 11:19:11;;;;;;;7.18;0.80;;;19.60;90.90;;;;;;5181528;27;20008;-84
2024/04/10 11:22:10;;;;;;;6.97;0.88;;;20.30;90.80;;;;;;5059192;28;20007;-83
2024/04/10 11:24:41;;;;;;;5.28;1.00;;;23.20;91.50;;;;;;5196551;27;20015;-80
2024/04/10 11:27:14;;;;;;;3.38;0.75;;;20.10;90.30;;;;;;5238042;27;20484;-81
2024/04/10 11:29:41;;;;;;;7.07;0.50;;;21.20;91.30;;;;;;5206373;27;20022;-79
2024/04/10 11:32:15;;;;;;;3.60;0.80;;;20.20;90.70;;;;;;5205085;27;20471;-80
2024/04/10 11:34:50;;;;;;;3.25;0.47;;;19.90;90.70;;;;;;5206773;27;20011;-81
2024/04/10 11:37:27;;;;;;;4.85;0.80;;;20.00;90.30;;;;;;5186085;27;20431;-80
2024/04/10 11:39:57;;;;;;;2.55;0.85;;;19.70;91.20;;;;;;5230435;27;20007;-78
2024/04/10 11:42:30;;;;;;;3.60;0.70;;;19.70;90.90;;;;;;5245898;27;20013;-78
2024/04/10 11:44:58;;;;;;;3.13;0.85;;;19.70;90.70;;;;;;5274003;27;20142;-79
2024/04/10 11:47:29;;;;;;;3.78;0.85;;;19.50;90.90;;;;;;5368231;26;20004;-78
2024/04/10 11:50:07;;;;;;;3.08;0.68;;;19.40;90.90;;;;;;5428343;26;20018;-83
2024/04/10 11:53:01;;;;;;;6.47;0.95;;;19.70;91.20;;;;;;5398649;26;20004;-83
2024/04/10 11:55:43;;;;;;;2.22;0.75;;;21.10;91.40;;;;;;5428435;26;20008;-83
2024/04/10 11:58:18;;;;;;;5.47;0.85;;;20.00;91.40;;;;;;5442894;26;20011;-83
2024/04/10 12:00:46;;;;;;;2.42;0.55;;;19.40;92.10;;;;;;5422124;26;20004;-81
2024/04/10 12:03:22;;;;;;;3.92;0.65;;;19.50;92.50;;;;;;5416801;26;20462;-77
2024/04/10 12:06:04;;;;;;;4.28;1.10;;;19.30;91.20;;;;;;5425787;26;20469;-79
2024/04/10 12:08:42;;;;;;;2.47;0.60;;;19.40;91.20;;;;;;5442792;26;20008;-79
2024/04/10 12:11:25;;;;;;;6.00;0.82;;;19.30;91.40;;;;;;5448013;26;20475;-81
2024/04/10 12:14:12;;;;;;;15.00;2.22;;;19.50;91.40;;;;;;5457995;26;20007;-78
2024/04/10 12:16:45;;;;;;;3.72;0.80;;;19.50;91.00;;;;;;5448602;26;19999;-79
2024/04/10 12:22:08;;;;;;;3.80;0.80;;;19.90;90.80;;;;;;5445307;26;20006;-77
2024/04/10 12:24:43;;;;;;;5.43;0.98;;;19.60;90.80;;;;;;5450719;26;20007;-79
2024/04/10 12:27:16;;;;;;;4.32;0.80;;;19.50;91.10;;;;;;5451602;26;20079;-79
2024/04/10 12:29:45;;;;;;;4.47;0.73;;;19.60;91.70;;;;;;5421326;26;19998;-79
2024/04/10 12:32:16;;;;;;;3.33;0.60;;;19.70;91.20;;;;;;5437308;26;20570;-77
2024/04/10 12:34:49;;;;;;;4.38;0.98;;;19.70;90.90;;;;;;5410985;26;19999;-79
2024/04/10 12:40:13;;;;;;;2.80;0.70;;;19.80;90.70;;;;;;5444880;26;20035;-76
2024/04/10 12:42:45;;;;;;;3.28;0.90;;;19.60;90.90;;;;;;5435805;26;20003;-79
2024/04/10 12:45:15;;;;;;;3.88;0.73;;;19.50;91.20;;;;;;5408937;26;20082;-78
2024/04/10 12:47:43;;;;;;;3.17;0.52;;;19.60;91.30;;;;;;5407482;26;20072;-78
2024/04/10 12:50:25;;;;;;;3.90;0.98;;;20.00;91.60;;;;;;5400826;26;19999;-78
2024/04/10 12:52:56;;;;;;;4.13;1.00;;;19.90;91.10;;;;;;5384624;26;20061;-78
2024/04/10 12:55:31;;;;;;;3.17;0.77;;;19.60;91.10;;;;;;5409229;26;20031;-79
2024/04/10 12:58:00;;;;;;;7.03;0.93;;;19.70;91.30;;;;;;5404252;26;20077;-79
2024/04/10 13:00:43;;;;;;;2.40;0.75;;;19.80;91.40;;;;;;5413235;26;20011;-78
2024/04/10 13:03:11;;;;;;;2.67;0.57;;;19.50;91.20;;;;;;5407141;26;20386;-80
2024/04/10 13:05:41;;;;;;;2.75;0.90;;;19.40;91.80;;;;;;5410634;26;20315;-75
2024/04/10 13:08:09;;;;;;;3.30;0.45;;;19.60;91.30;;;;;;5406295;26;20014;-79
2024/04/10 13:10:51;;;;;;;2.20;1.02;;;19.70;91.30;;;;;;5403523;26;20690;-77
2024/04/10 13:13:19;;;;;;;8.95;1.25;;;19.40;92.30;;;;;;5407081;26;20004;-76
2024/04/10 13:16:06;;;;;;;5.15;0.70;;;19.20;91.90;;;;;;5403690;26;19995;-79
2024/04/10 13:18:34;;;;;;;4.18;0.80;;;19.30;92.10;;;;;;5404698;26;19996;-76
2024/04/10 13:21:11;;;;;;;2.83;0.77;;;19.20;92.00;;;;;;5400986;26;20503;-78
2024/04/10 13:23:42;;;;;;;4.47;1.00;;;19.30;91.90;;;;;;5418759;26;20011;-78
2024/04/10 13:26:28;;;;;;;3.67;0.82;;;19.10;91.90;;;;;;5402649;26;20004;-78
2024/04/10 13:29:11;;;;;;;2.63;0.70;;;18.90;92.50;;;;;;5393605;26;20050;-78
2024/04/10 13:31:42;;;;;;;2.55;0.88;;;19.20;92.80;;;;;;5411543;26;20004;-77
2024/04/10 13:34:19;;;;;;;2.95;0.65;;;19.00;92.70;;;;;;5396429;26;20079;-79